Terminal Aerodrome Forecast
Issued by NWS North Platte, NE

Home | Current Version | Previous Version | Text Only | Print | Product List | Glossary On
Versions: 1 2 3 4 5 6 7 8 9 10 11 12
000
FTUS43 KLBF 012300
TAFVTN
TAF
KVTN 012320Z 0200/0224 34013G19KT P6SM SCT050
     FM020200 02004KT P6SM SCT120
     FM020600 VRB04KT P6SM BKN120
     FM020900 VRB05KT P6SM VCTS BKN100CB
     FM021300 32007KT P6SM BKN150
     FM021900 36008KT P6SM BKN100=

USA.gov is the U.S. government's official web portal to all federal, state and local government web resources and services.